sensor_id;sensor_type;location;lat;lon;timestamp;P1;durP1;ratioP1;P2;durP2;ratioP2
2624;SDS011;1322;53.256;10.386;2022-07-23T00:01:55;3.33;;;1.93;;
2624;SDS011;1322;53.256;10.386;2022-07-23T00:04:20;2.93;;;1.73;;
2624;SDS011;1322;53.256;10.386;2022-07-23T00:06:46;3.60;;;2.10;;
2624;SDS011;1322;53.256;10.386;2022-07-23T00:09:12;3.27;;;2.10;;
2624;SDS011;1322;53.256;10.386;2022-07-23T00:11:37;3.10;;;1.87;;
2624;SDS011;1322;53.256;10.386;2022-07-23T00:14:03;3.73;;;1.77;;
2624;SDS011;1322;53.256;10.386;2022-07-23T00:16:29;2.73;;;1.70;;
2624;SDS011;1322;53.256;10.386;2022-07-23T00:18:54;3.73;;;2.10;;
2624;SDS011;1322;53.256;10.386;2022-07-23T00:21:20;3.50;;;1.73;;
2624;SDS011;1322;53.256;10.386;2022-07-23T00:23:48;4.23;;;2.00;;
2624;SDS011;1322;53.256;10.386;2022-07-23T00:26:14;3.43;;;1.87;;
2624;SDS011;1322;53.256;10.386;2022-07-23T00:28:40;7.50;;;2.90;;
2624;SDS011;1322;53.256;10.386;2022-07-23T00:31:05;4.27;;;2.03;;
2624;SDS011;1322;53.256;10.386;2022-07-23T00:33:31;2.97;;;1.70;;
2624;SDS011;1322;53.256;10.386;2022-07-23T00:35:57;3.33;;;1.87;;
2624;SDS011;1322;53.256;10.386;2022-07-23T00:38:22;2.50;;;1.93;;
2624;SDS011;1322;53.256;10.386;2022-07-23T00:40:48;3.47;;;2.40;;
2624;SDS011;1322;53.256;10.386;2022-07-23T00:43:13;4.47;;;1.70;;
2624;SDS011;1322;53.256;10.386;2022-07-23T00:45:39;5.27;;;2.47;;
2624;SDS011;1322;53.256;10.386;2022-07-23T00:48:06;4.17;;;2.17;;
2624;SDS011;1322;53.256;10.386;2022-07-23T00:50:36;3.30;;;1.87;;
2624;SDS011;1322;53.256;10.386;2022-07-23T00:53:04;3.50;;;2.10;;
2624;SDS011;1322;53.256;10.386;2022-07-23T00:55:31;4.53;;;2.10;;
2624;SDS011;1322;53.256;10.386;2022-07-23T00:58:02;3.20;;;1.90;;
2624;SDS011;1322;53.256;10.386;2022-07-23T01:00:28;3.63;;;1.93;;
2624;SDS011;1322;53.256;10.386;2022-07-23T01:02:56;4.07;;;1.87;;
2624;SDS011;1322;53.256;10.386;2022-07-23T01:05:23;4.30;;;2.10;;
2624;SDS011;1322;53.256;10.386;2022-07-23T01:07:49;5.60;;;2.17;;
2624;SDS011;1322;53.256;10.386;2022-07-23T01:10:18;4.93;;;2.13;;
2624;SDS011;1322;53.256;10.386;2022-07-23T01:12:56;3.23;;;1.60;;
2624;SDS011;1322;53.256;10.386;2022-07-23T01:15:32;2.63;;;2.17;;
2624;SDS011;1322;53.256;10.386;2022-07-23T01:17:59;3.23;;;2.07;;
2624;SDS011;1322;53.256;10.386;2022-07-23T01:20:29;3.50;;;1.80;;
2624;SDS011;1322;53.256;10.386;2022-07-23T01:22:57;2.27;;;1.87;;
2624;SDS011;1322;53.256;10.386;2022-07-23T01:25:23;6.73;;;1.87;;
2624;SDS011;1322;53.256;10.386;2022-07-23T01:27:51;3.23;;;1.63;;
2624;SDS011;1322;53.256;10.386;2022-07-23T01:30:18;3.90;;;1.90;;
2624;SDS011;1322;53.256;10.386;2022-07-23T01:32:45;3.73;;;2.10;;
2624;SDS011;1322;53.256;10.386;2022-07-23T01:35:12;4.27;;;1.70;;
2624;SDS011;1322;53.256;10.386;2022-07-23T01:37:42;2.27;;;2.07;;
2624;SDS011;1322;53.256;10.386;2022-07-23T01:40:12;4.07;;;1.90;;
2624;SDS011;1322;53.256;10.386;2022-07-23T01:42:41;4.43;;;1.60;;
2624;SDS011;1322;53.256;10.386;2022-07-23T01:45:09;4.00;;;1.97;;
2624;SDS011;1322;53.256;10.386;2022-07-23T01:47:35;3.17;;;1.60;;
2624;SDS011;1322;53.256;10.386;2022-07-23T01:50:01;5.43;;;2.13;;
2624;SDS011;1322;53.256;10.386;2022-07-23T01:52:27;5.23;;;1.90;;
2624;SDS011;1322;53.256;10.386;2022-07-23T01:54:53;2.40;;;1.60;;
2624;SDS011;1322;53.256;10.386;2022-07-23T01:57:19;4.70;;;2.20;;
2624;SDS011;1322;53.256;10.386;2022-07-23T01:59:46;4.30;;;2.00;;
2624;SDS011;1322;53.256;10.386;2022-07-23T02:02:15;4.30;;;2.20;;
2624;SDS011;1322;53.256;10.386;2022-07-23T02:04:41;4.33;;;2.07;;
2624;SDS011;1322;53.256;10.386;2022-07-23T02:07:08;3.60;;;1.77;;
2624;SDS011;1322;53.256;10.386;2022-07-23T02:09:35;8.27;;;2.60;;
2624;SDS011;1322;53.256;10.386;2022-07-23T02:12:04;13.00;;;3.23;;
2624;SDS011;1322;53.256;10.386;2022-07-23T02:14:30;3.97;;;1.80;;
2624;SDS011;1322;53.256;10.386;2022-07-23T02:16:56;3.80;;;2.00;;
2624;SDS011;1322;53.256;10.386;2022-07-23T02:19:23;2.33;;;1.80;;
2624;SDS011;1322;53.256;10.386;2022-07-23T02:21:50;3.80;;;2.40;;
2624;SDS011;1322;53.256;10.386;2022-07-23T02:24:17;2.80;;;1.97;;
2624;SDS011;1322;53.256;10.386;2022-07-23T02:26:44;4.43;;;2.30;;
2624;SDS011;1322;53.256;10.386;2022-07-23T02:29:14;3.63;;;1.90;;
2624;SDS011;1322;53.256;10.386;2022-07-23T02:31:41;3.17;;;1.90;;
2624;SDS011;1322;53.256;10.386;2022-07-23T02:34:09;2.57;;;1.93;;
2624;SDS011;1322;53.256;10.386;2022-07-23T02:36:38;3.30;;;2.00;;
2624;SDS011;1322;53.256;10.386;2022-07-23T02:39:06;2.30;;;1.93;;
2624;SDS011;1322;53.256;10.386;2022-07-23T02:41:33;3.30;;;1.90;;
2624;SDS011;1322;53.256;10.386;2022-07-23T02:44:01;4.93;;;1.80;;
2624;SDS011;1322;53.256;10.386;2022-07-23T02:46:28;3.40;;;1.93;;
2624;SDS011;1322;53.256;10.386;2022-07-23T02:48:55;3.50;;;1.80;;
2624;SDS011;1322;53.256;10.386;2022-07-23T02:51:23;4.07;;;1.93;;
2624;SDS011;1322;53.256;10.386;2022-07-23T02:53:53;2.80;;;2.13;;
2624;SDS011;1322;53.256;10.386;2022-07-23T02:56:20;4.10;;;1.70;;
2624;SDS011;1322;53.256;10.386;2022-07-23T02:58:48;5.07;;;1.60;;
2624;SDS011;1322;53.256;10.386;2022-07-23T03:01:16;2.03;;;1.70;;
2624;SDS011;1322;53.256;10.386;2022-07-23T03:03:44;3.87;;;2.00;;
2624;SDS011;1322;53.256;10.386;2022-07-23T03:09:34;16.70;;;3.23;;
2624;SDS011;1322;53.256;10.386;2022-07-23T03:11:59;3.70;;;1.83;;
2624;SDS011;1322;53.256;10.386;2022-07-23T03:14:25;3.70;;;2.10;;
2624;SDS011;1322;53.256;10.386;2022-07-23T03:16:52;5.37;;;2.17;;
2624;SDS011;1322;53.256;10.386;2022-07-23T03:19:19;5.13;;;2.57;;
2624;SDS011;1322;53.256;10.386;2022-07-23T03:21:45;8.37;;;2.73;;
2624;SDS011;1322;53.256;10.386;2022-07-23T03:24:10;5.17;;;2.53;;
2624;SDS011;1322;53.256;10.386;2022-07-23T03:26:36;4.20;;;2.10;;
2624;SDS011;1322;53.256;10.386;2022-07-23T03:29:02;4.90;;;2.67;;
2624;SDS011;1322;53.256;10.386;2022-07-23T03:31:29;3.97;;;2.60;;
2624;SDS011;1322;53.256;10.386;2022-07-23T03:33:56;3.60;;;2.63;;
2624;SDS011;1322;53.256;10.386;2022-07-23T03:36:22;4.73;;;2.03;;
2624;SDS011;1322;53.256;10.386;2022-07-23T03:38:51;3.43;;;2.33;;
2624;SDS011;1322;53.256;10.386;2022-07-23T03:41:17;3.50;;;2.43;;
2624;SDS011;1322;53.256;10.386;2022-07-23T03:43:43;8.60;;;2.17;;
2624;SDS011;1322;53.256;10.386;2022-07-23T03:46:09;4.10;;;2.50;;
2624;SDS011;1322;53.256;10.386;2022-07-23T03:48:35;5.33;;;2.87;;
2624;SDS011;1322;53.256;10.386;2022-07-23T03:51:00;2.40;;;2.03;;
2624;SDS011;1322;53.256;10.386;2022-07-23T03:53:26;6.00;;;2.73;;
2624;SDS011;1322;53.256;10.386;2022-07-23T03:55:51;3.17;;;1.90;;
2624;SDS011;1322;53.256;10.386;2022-07-23T03:58:17;2.90;;;2.20;;
2624;SDS011;1322;53.256;10.386;2022-07-23T04:00:43;4.67;;;2.13;;
2624;SDS011;1322;53.256;10.386;2022-07-23T04:03:08;3.17;;;1.90;;
2624;SDS011;1322;53.256;10.386;2022-07-23T04:05:34;2.63;;;1.80;;
2624;SDS011;1322;53.256;10.386;2022-07-23T04:07:59;4.13;;;2.53;;
2624;SDS011;1322;53.256;10.386;2022-07-23T04:10:25;2.47;;;1.97;;
2624;SDS011;1322;53.256;10.386;2022-07-23T04:12:51;4.97;;;2.30;;
2624;SDS011;1322;53.256;10.386;2022-07-23T04:15:16;4.37;;;2.37;;
2624;SDS011;1322;53.256;10.386;2022-07-23T04:17:42;6.73;;;2.70;;
2624;SDS011;1322;53.256;10.386;2022-07-23T04:20:09;5.17;;;2.30;;
2624;SDS011;1322;53.256;10.386;2022-07-23T04:22:35;3.90;;;2.13;;
2624;SDS011;1322;53.256;10.386;2022-07-23T04:25:04;7.07;;;2.73;;
2624;SDS011;1322;53.256;10.386;2022-07-23T04:27:30;4.67;;;2.00;;
2624;SDS011;1322;53.256;10.386;2022-07-23T04:29:58;3.37;;;2.07;;
2624;SDS011;1322;53.256;10.386;2022-07-23T04:32:24;2.87;;;2.07;;
2624;SDS011;1322;53.256;10.386;2022-07-23T04:34:49;3.87;;;2.10;;
2624;SDS011;1322;53.256;10.386;2022-07-23T04:37:15;5.50;;;2.33;;
2624;SDS011;1322;53.256;10.386;2022-07-23T04:39:40;3.67;;;1.93;;
2624;SDS011;1322;53.256;10.386;2022-07-23T04:42:06;6.20;;;2.37;;
2624;SDS011;1322;53.256;10.386;2022-07-23T04:44:32;5.17;;;2.00;;
2624;SDS011;1322;53.256;10.386;2022-07-23T04:46:57;3.20;;;2.30;;
2624;SDS011;1322;53.256;10.386;2022-07-23T04:49:23;3.87;;;1.90;;
2624;SDS011;1322;53.256;10.386;2022-07-23T04:51:48;4.13;;;2.10;;
2624;SDS011;1322;53.256;10.386;2022-07-23T04:54:14;4.40;;;1.90;;
2624;SDS011;1322;53.256;10.386;2022-07-23T04:56:40;3.73;;;2.40;;
2624;SDS011;1322;53.256;10.386;2022-07-23T04:59:05;10.23;;;3.07;;
2624;SDS011;1322;53.256;10.386;2022-07-23T05:01:31;3.53;;;2.07;;
2624;SDS011;1322;53.256;10.386;2022-07-23T05:03:57;2.90;;;2.17;;
2624;SDS011;1322;53.256;10.386;2022-07-23T05:06:22;5.50;;;2.37;;
2624;SDS011;1322;53.256;10.386;2022-07-23T05:08:48;4.07;;;2.47;;
2624;SDS011;1322;53.256;10.386;2022-07-23T05:11:17;4.50;;;2.03;;
2624;SDS011;1322;53.256;10.386;2022-07-23T05:13:42;6.27;;;2.53;;
2624;SDS011;1322;53.256;10.386;2022-07-23T05:16:08;2.87;;;2.57;;
2624;SDS011;1322;53.256;10.386;2022-07-23T05:18:33;4.23;;;2.20;;
2624;SDS011;1322;53.256;10.386;2022-07-23T05:20:59;6.60;;;2.70;;
2624;SDS011;1322;53.256;10.386;2022-07-23T05:23:25;9.43;;;3.00;;
2624;SDS011;1322;53.256;10.386;2022-07-23T05:25:50;4.00;;;2.47;;
2624;SDS011;1322;53.256;10.386;2022-07-23T05:28:16;9.20;;;2.97;;
2624;SDS011;1322;53.256;10.386;2022-07-23T05:30:41;2.97;;;2.63;;
2624;SDS011;1322;53.256;10.386;2022-07-23T05:33:07;4.30;;;2.83;;
2624;SDS011;1322;53.256;10.386;2022-07-23T05:35:33;8.30;;;3.03;;
2624;SDS011;1322;53.256;10.386;2022-07-23T05:37:59;3.23;;;2.67;;
2624;SDS011;1322;53.256;10.386;2022-07-23T05:40:24;4.37;;;2.47;;
2624;SDS011;1322;53.256;10.386;2022-07-23T05:42:50;4.70;;;2.60;;
2624;SDS011;1322;53.256;10.386;2022-07-23T05:45:18;4.73;;;3.37;;
2624;SDS011;1322;53.256;10.386;2022-07-23T05:47:45;5.70;;;2.67;;
2624;SDS011;1322;53.256;10.386;2022-07-23T05:50:12;3.80;;;1.90;;
2624;SDS011;1322;53.256;10.386;2022-07-23T05:52:39;6.63;;;3.27;;
2624;SDS011;1322;53.256;10.386;2022-07-23T05:55:05;3.93;;;2.20;;
2624;SDS011;1322;53.256;10.386;2022-07-23T05:57:32;5.50;;;2.67;;
2624;SDS011;1322;53.256;10.386;2022-07-23T05:59:57;4.80;;;3.10;;
2624;SDS011;1322;53.256;10.386;2022-07-23T06:02:23;5.60;;;2.60;;
2624;SDS011;1322;53.256;10.386;2022-07-23T06:04:49;2.90;;;2.37;;
2624;SDS011;1322;53.256;10.386;2022-07-23T06:07:14;2.77;;;2.50;;
2624;SDS011;1322;53.256;10.386;2022-07-23T06:09:40;4.47;;;2.27;;
2624;SDS011;1322;53.256;10.386;2022-07-23T06:12:06;3.87;;;2.20;;
2624;SDS011;1322;53.256;10.386;2022-07-23T06:14:32;3.93;;;2.47;;
2624;SDS011;1322;53.256;10.386;2022-07-23T06:16:58;7.30;;;2.67;;
2624;SDS011;1322;53.256;10.386;2022-07-23T06:19:24;7.73;;;2.40;;
2624;SDS011;1322;53.256;10.386;2022-07-23T06:21:50;3.10;;;1.97;;
2624;SDS011;1322;53.256;10.386;2022-07-23T06:24:15;2.30;;;1.87;;
2624;SDS011;1322;53.256;10.386;2022-07-23T06:26:44;2.90;;;1.70;;
2624;SDS011;1322;53.256;10.386;2022-07-23T06:29:10;3.93;;;1.80;;
2624;SDS011;1322;53.256;10.386;2022-07-23T06:31:36;3.73;;;1.57;;
2624;SDS011;1322;53.256;10.386;2022-07-23T06:34:02;3.77;;;1.77;;
2624;SDS011;1322;53.256;10.386;2022-07-23T06:36:28;7.77;;;2.07;;
2624;SDS011;1322;53.256;10.386;2022-07-23T06:38:53;3.23;;;1.70;;
2624;SDS011;1322;53.256;10.386;2022-07-23T06:41:19;3.10;;;1.70;;
2624;SDS011;1322;53.256;10.386;2022-07-23T06:43:45;2.33;;;1.80;;
2624;SDS011;1322;53.256;10.386;2022-07-23T06:46:10;5.33;;;1.87;;
2624;SDS011;1322;53.256;10.386;2022-07-23T06:48:36;2.47;;;1.80;;
2624;SDS011;1322;53.256;10.386;2022-07-23T06:51:02;2.60;;;1.67;;
2624;SDS011;1322;53.256;10.386;2022-07-23T06:53:28;2.57;;;1.60;;
2624;SDS011;1322;53.256;10.386;2022-07-23T06:55:54;6.80;;;1.77;;
2624;SDS011;1322;53.256;10.386;2022-07-23T06:58:19;3.40;;;1.50;;
2624;SDS011;1322;53.256;10.386;2022-07-23T07:00:45;2.80;;;1.50;;
2624;SDS011;1322;53.256;10.386;2022-07-23T07:03:11;2.20;;;1.43;;
2624;SDS011;1322;53.256;10.386;2022-07-23T07:05:37;3.00;;;1.47;;
2624;SDS011;1322;53.256;10.386;2022-07-23T07:08:04;3.13;;;1.63;;
2624;SDS011;1322;53.256;10.386;2022-07-23T07:10:37;2.00;;;1.40;;
2624;SDS011;1322;53.256;10.386;2022-07-23T07:13:03;4.70;;;1.90;;
2624;SDS011;1322;53.256;10.386;2022-07-23T07:15:28;6.87;;;2.20;;
2624;SDS011;1322;53.256;10.386;2022-07-23T07:17:54;3.40;;;1.80;;
2624;SDS011;1322;53.256;10.386;2022-07-23T07:20:20;3.37;;;1.60;;
2624;SDS011;1322;53.256;10.386;2022-07-23T07:22:45;4.47;;;2.30;;
2624;SDS011;1322;53.256;10.386;2022-07-23T07:25:11;2.80;;;1.50;;
2624;SDS011;1322;53.256;10.386;2022-07-23T07:27:36;4.40;;;1.83;;
2624;SDS011;1322;53.256;10.386;2022-07-23T07:30:03;2.83;;;1.70;;
2624;SDS011;1322;53.256;10.386;2022-07-23T07:32:29;5.30;;;1.80;;
2624;SDS011;1322;53.256;10.386;2022-07-23T07:34:57;4.63;;;2.10;;
2624;SDS011;1322;53.256;10.386;2022-07-23T07:37:23;2.60;;;1.40;;
2624;SDS011;1322;53.256;10.386;2022-07-23T07:39:49;2.83;;;1.63;;
2624;SDS011;1322;53.256;10.386;2022-07-23T07:42:14;2.20;;;1.57;;
2624;SDS011;1322;53.256;10.386;2022-07-23T07:44:40;3.27;;;1.50;;
2624;SDS011;1322;53.256;10.386;2022-07-23T07:47:06;2.60;;;1.30;;
2624;SDS011;1322;53.256;10.386;2022-07-23T07:49:32;2.80;;;1.40;;
2624;SDS011;1322;53.256;10.386;2022-07-23T07:51:58;11.37;;;1.80;;
2624;SDS011;1322;53.256;10.386;2022-07-23T07:54:23;3.50;;;1.40;;
2624;SDS011;1322;53.256;10.386;2022-07-23T07:56:49;2.80;;;1.50;;
2624;SDS011;1322;53.256;10.386;2022-07-23T07:59:15;2.43;;;1.27;;
2624;SDS011;1322;53.256;10.386;2022-07-23T08:01:41;5.20;;;1.30;;
2624;SDS011;1322;53.256;10.386;2022-07-23T08:04:06;6.23;;;1.60;;
2624;SDS011;1322;53.256;10.386;2022-07-23T08:06:32;2.67;;;1.53;;
2624;SDS011;1322;53.256;10.386;2022-07-23T08:08:58;2.23;;;1.27;;
2624;SDS011;1322;53.256;10.386;2022-07-23T08:11:24;2.50;;;1.43;;
2624;SDS011;1322;53.256;10.386;2022-07-23T08:13:49;3.00;;;1.23;;
2624;SDS011;1322;53.256;10.386;2022-07-23T08:16:15;3.20;;;1.13;;
2624;SDS011;1322;53.256;10.386;2022-07-23T08:18:41;2.47;;;1.60;;
2624;SDS011;1322;53.256;10.386;2022-07-23T08:21:10;2.50;;;2.10;;
2624;SDS011;1322;53.256;10.386;2022-07-23T08:23:36;1.60;;;1.10;;
2624;SDS011;1322;53.256;10.386;2022-07-23T08:26:01;3.97;;;1.43;;
2624;SDS011;1322;53.256;10.386;2022-07-23T08:28:27;2.00;;;1.23;;
2624;SDS011;1322;53.256;10.386;2022-07-23T08:30:53;2.30;;;1.27;;
2624;SDS011;1322;53.256;10.386;2022-07-23T08:33:18;9.30;;;1.67;;
2624;SDS011;1322;53.256;10.386;2022-07-23T08:35:48;2.27;;;1.30;;
2624;SDS011;1322;53.256;10.386;2022-07-23T08:38:16;1.93;;;1.23;;
2624;SDS011;1322;53.256;10.386;2022-07-23T08:40:44;3.83;;;1.50;;
2624;SDS011;1322;53.256;10.386;2022-07-23T08:43:12;3.23;;;1.37;;
2624;SDS011;1322;53.256;10.386;2022-07-23T08:45:47;3.90;;;1.30;;
2624;SDS011;1322;53.256;10.386;2022-07-23T08:48:19;2.13;;;1.43;;
2624;SDS011;1322;53.256;10.386;2022-07-23T08:50:48;1.87;;;1.30;;
2624;SDS011;1322;53.256;10.386;2022-07-23T08:53:15;2.97;;;1.70;;
2624;SDS011;1322;53.256;10.386;2022-07-23T08:55:47;2.67;;;1.90;;
2624;SDS011;1322;53.256;10.386;2022-07-23T08:58:14;2.60;;;1.57;;
2624;SDS011;1322;53.256;10.386;2022-07-23T09:00:40;2.37;;;1.40;;
2624;SDS011;1322;53.256;10.386;2022-07-23T09:03:06;4.70;;;1.80;;
2624;SDS011;1322;53.256;10.386;2022-07-23T09:05:31;3.40;;;2.20;;
2624;SDS011;1322;53.256;10.386;2022-07-23T10:08:40;5.77;;;1.80;;
2624;SDS011;1322;53.256;10.386;2022-07-23T10:11:07;3.43;;;1.10;;
2624;SDS011;1322;53.256;10.386;2022-07-23T10:13:34;2.07;;;1.20;;
2624;SDS011;1322;53.256;10.386;2022-07-23T10:16:15;5.77;;;1.50;;
2624;SDS011;1322;53.256;10.386;2022-07-23T10:18:41;1.83;;;1.20;;
2624;SDS011;1322;53.256;10.386;2022-07-23T10:21:07;2.20;;;1.20;;
2624;SDS011;1322;53.256;10.386;2022-07-23T10:26:24;2.20;;;1.30;;
2624;SDS011;1322;53.256;10.386;2022-07-23T10:32:04;1.90;;;1.27;;
2624;SDS011;1322;53.256;10.386;2022-07-23T10:34:46;1.90;;;1.53;;
2624;SDS011;1322;53.256;10.386;2022-07-23T10:37:17;2.63;;;1.20;;
2624;SDS011;1322;53.256;10.386;2022-07-23T10:40:19;1.80;;;1.40;;
2624;SDS011;1322;53.256;10.386;2022-07-23T10:42:48;9.33;;;1.50;;
2624;SDS011;1322;53.256;10.386;2022-07-23T10:47:51;1.40;;;1.00;;
2624;SDS011;1322;53.256;10.386;2022-07-23T10:50:18;2.00;;;1.10;;
2624;SDS011;1322;53.256;10.386;2022-07-23T10:53:07;1.67;;;1.00;;
2624;SDS011;1322;53.256;10.386;2022-07-23T10:55:39;1.37;;;1.13;;
2624;SDS011;1322;53.256;10.386;2022-07-23T10:58:06;4.83;;;1.10;;
2624;SDS011;1322;53.256;10.386;2022-07-23T11:00:33;2.77;;;1.23;;
2624;SDS011;1322;53.256;10.386;2022-07-23T11:03:02;1.57;;;0.90;;
2624;SDS011;1322;53.256;10.386;2022-07-23T11:05:42;1.50;;;1.00;;
2624;SDS011;1322;53.256;10.386;2022-07-23T11:10:40;1.37;;;1.10;;
2624;SDS011;1322;53.256;10.386;2022-07-23T11:34:46;1.60;;;1.10;;
2624;SDS011;1322;53.256;10.386;2022-07-23T11:40:08;1.77;;;1.00;;
2624;SDS011;1322;53.256;10.386;2022-07-23T11:42:39;2.10;;;1.10;;
2624;SDS011;1322;53.256;10.386;2022-07-23T11:45:17;1.30;;;1.00;;
2624;SDS011;1322;53.256;10.386;2022-07-23T11:47:43;4.10;;;1.03;;
2624;SDS011;1322;53.256;10.386;2022-07-23T11:50:08;3.90;;;1.00;;
2624;SDS011;1322;53.256;10.386;2022-07-23T11:52:34;1.77;;;1.20;;
2624;SDS011;1322;53.256;10.386;2022-07-23T11:55:02;1.83;;;1.00;;
2624;SDS011;1322;53.256;10.386;2022-07-23T11:57:31;2.03;;;1.10;;
2624;SDS011;1322;53.256;10.386;2022-07-23T12:00:06;2.03;;;0.90;;
2624;SDS011;1322;53.256;10.386;2022-07-23T12:02:33;2.97;;;1.13;;
2624;SDS011;1322;53.256;10.386;2022-07-23T12:04:59;2.17;;;1.13;;
2624;SDS011;1322;53.256;10.386;2022-07-23T12:10:11;1.10;;;0.80;;
2624;SDS011;1322;53.256;10.386;2022-07-23T12:12:45;3.03;;;1.00;;
2624;SDS011;1322;53.256;10.386;2022-07-23T12:15:15;1.70;;;0.93;;
2624;SDS011;1322;53.256;10.386;2022-07-23T12:17:44;3.00;;;0.90;;
2624;SDS011;1322;53.256;10.386;2022-07-23T12:20:15;1.00;;;0.70;;
2624;SDS011;1322;53.256;10.386;2022-07-23T12:22:44;1.20;;;0.90;;
2624;SDS011;1322;53.256;10.386;2022-07-23T12:25:16;1.20;;;0.90;;
2624;SDS011;1322;53.256;10.386;2022-07-23T12:27:44;2.13;;;0.97;;
2624;SDS011;1322;53.256;10.386;2022-07-23T12:30:17;1.50;;;0.90;;
2624;SDS011;1322;53.256;10.386;2022-07-23T12:32:54;1.73;;;1.00;;
2624;SDS011;1322;53.256;10.386;2022-07-23T12:35:22;2.17;;;0.80;;
2624;SDS011;1322;53.256;10.386;2022-07-23T12:37:59;1.20;;;0.97;;
2624;SDS011;1322;53.256;10.386;2022-07-23T12:43:04;1.10;;;0.70;;
2624;SDS011;1322;53.256;10.386;2022-07-23T12:45:42;2.50;;;0.80;;
2624;SDS011;1322;53.256;10.386;2022-07-23T12:48:34;1.43;;;0.93;;
2624;SDS011;1322;53.256;10.386;2022-07-23T12:51:08;2.50;;;0.90;;
2624;SDS011;1322;53.256;10.386;2022-07-23T12:53:40;1.60;;;1.07;;
2624;SDS011;1322;53.256;10.386;2022-07-23T12:56:09;1.43;;;1.00;;
2624;SDS011;1322;53.256;10.386;2022-07-23T13:01:33;9.03;;;1.03;;
2624;SDS011;1322;53.256;10.386;2022-07-23T13:04:07;1.50;;;0.83;;
2624;SDS011;1322;53.256;10.386;2022-07-23T13:06:38;2.47;;;0.90;;
2624;SDS011;1322;53.256;10.386;2022-07-23T13:09:09;4.73;;;1.13;;
2624;SDS011;1322;53.256;10.386;2022-07-23T13:11:37;3.03;;;1.27;;
2624;SDS011;1322;53.256;10.386;2022-07-23T13:14:04;1.30;;;0.87;;
2624;SDS011;1322;53.256;10.386;2022-07-23T13:16:31;1.43;;;1.00;;
2624;SDS011;1322;53.256;10.386;2022-07-23T13:18:57;1.20;;;1.00;;
2624;SDS011;1322;53.256;10.386;2022-07-23T13:21:25;1.70;;;1.10;;
2624;SDS011;1322;53.256;10.386;2022-07-23T13:23:51;3.40;;;0.90;;
2624;SDS011;1322;53.256;10.386;2022-07-23T13:26:17;3.37;;;1.33;;
2624;SDS011;1322;53.256;10.386;2022-07-23T13:28:42;3.17;;;1.00;;
2624;SDS011;1322;53.256;10.386;2022-07-23T13:31:08;6.17;;;1.20;;
2624;SDS011;1322;53.256;10.386;2022-07-23T13:33:34;1.40;;;1.00;;
2624;SDS011;1322;53.256;10.386;2022-07-23T13:36:00;1.27;;;0.90;;
2624;SDS011;1322;53.256;10.386;2022-07-23T13:38:26;1.30;;;0.90;;
2624;SDS011;1322;53.256;10.386;2022-07-23T13:40:52;2.03;;;0.97;;
2624;SDS011;1322;53.256;10.386;2022-07-23T13:43:19;3.20;;;0.97;;
2624;SDS011;1322;53.256;10.386;2022-07-23T13:45:47;1.40;;;1.20;;
2624;SDS011;1322;53.256;10.386;2022-07-23T13:48:13;1.30;;;1.00;;
2624;SDS011;1322;53.256;10.386;2022-07-23T13:50:39;1.87;;;0.80;;
2624;SDS011;1322;53.256;10.386;2022-07-23T13:53:08;2.90;;;1.30;;
2624;SDS011;1322;53.256;10.386;2022-07-23T13:55:36;3.37;;;1.00;;
2624;SDS011;1322;53.256;10.386;2022-07-23T13:58:03;2.70;;;1.00;;
2624;SDS011;1322;53.256;10.386;2022-07-23T14:00:30;1.10;;;0.83;;
2624;SDS011;1322;53.256;10.386;2022-07-23T14:02:57;1.10;;;0.80;;
2624;SDS011;1322;53.256;10.386;2022-07-23T14:05:23;4.30;;;1.60;;
2624;SDS011;1322;53.256;10.386;2022-07-23T14:07:49;1.20;;;0.90;;
2624;SDS011;1322;53.256;10.386;2022-07-23T14:10:16;1.40;;;0.90;;
2624;SDS011;1322;53.256;10.386;2022-07-23T14:12:43;1.80;;;1.00;;
2624;SDS011;1322;53.256;10.386;2022-07-23T14:15:10;1.43;;;1.20;;
2624;SDS011;1322;53.256;10.386;2022-07-23T14:17:36;3.70;;;1.10;;
2624;SDS011;1322;53.256;10.386;2022-07-23T14:20:04;1.63;;;1.00;;
2624;SDS011;1322;53.256;10.386;2022-07-23T14:22:31;3.00;;;1.13;;
2624;SDS011;1322;53.256;10.386;2022-07-23T14:24:57;1.20;;;1.00;;
2624;SDS011;1322;53.256;10.386;2022-07-23T14:27:23;2.60;;;1.20;;
2624;SDS011;1322;53.256;10.386;2022-07-23T14:29:49;2.50;;;1.10;;
2624;SDS011;1322;53.256;10.386;2022-07-23T14:32:15;6.60;;;0.93;;
2624;SDS011;1322;53.256;10.386;2022-07-23T14:34:41;4.00;;;1.20;;
2624;SDS011;1322;53.256;10.386;2022-07-23T14:37:06;3.10;;;1.00;;
2624;SDS011;1322;53.256;10.386;2022-07-23T14:39:32;1.43;;;1.20;;
2624;SDS011;1322;53.256;10.386;2022-07-23T14:41:58;1.67;;;1.00;;
2624;SDS011;1322;53.256;10.386;2022-07-23T14:44:24;1.77;;;1.00;;
2624;SDS011;1322;53.256;10.386;2022-07-23T14:46:49;3.13;;;1.67;;
2624;SDS011;1322;53.256;10.386;2022-07-23T14:49:15;1.93;;;1.07;;
2624;SDS011;1322;53.256;10.386;2022-07-23T14:51:41;1.60;;;1.00;;
2624;SDS011;1322;53.256;10.386;2022-07-23T14:54:08;3.20;;;1.10;;
2624;SDS011;1322;53.256;10.386;2022-07-23T14:56:34;2.47;;;1.10;;
2624;SDS011;1322;53.256;10.386;2022-07-23T14:59:01;2.43;;;1.10;;
2624;SDS011;1322;53.256;10.386;2022-07-23T15:01:28;1.67;;;1.07;;
2624;SDS011;1322;53.256;10.386;2022-07-23T15:03:54;1.90;;;0.90;;
2624;SDS011;1322;53.256;10.386;2022-07-23T15:06:19;2.77;;;1.40;;
2624;SDS011;1322;53.256;10.386;2022-07-23T15:08:45;4.30;;;1.00;;
2624;SDS011;1322;53.256;10.386;2022-07-23T15:11:11;1.30;;;0.93;;
2624;SDS011;1322;53.256;10.386;2022-07-23T15:13:38;1.43;;;0.90;;
2624;SDS011;1322;53.256;10.386;2022-07-23T15:16:04;1.47;;;1.00;;
2624;SDS011;1322;53.256;10.386;2022-07-23T15:18:33;3.30;;;1.37;;
2624;SDS011;1322;53.256;10.386;2022-07-23T15:20:59;1.20;;;0.80;;
2624;SDS011;1322;53.256;10.386;2022-07-23T15:23:26;1.30;;;1.00;;
2624;SDS011;1322;53.256;10.386;2022-07-23T15:25:54;1.63;;;1.03;;
2624;SDS011;1322;53.256;10.386;2022-07-23T15:28:21;3.27;;;1.10;;
2624;SDS011;1322;53.256;10.386;2022-07-23T15:30:47;2.80;;;1.37;;
2624;SDS011;1322;53.256;10.386;2022-07-23T15:33:14;6.33;;;1.50;;
2624;SDS011;1322;53.256;10.386;2022-07-23T15:35:39;3.30;;;1.20;;
2624;SDS011;1322;53.256;10.386;2022-07-23T15:38:05;6.33;;;1.30;;
2624;SDS011;1322;53.256;10.386;2022-07-23T15:40:31;4.90;;;1.20;;
2624;SDS011;1322;53.256;10.386;2022-07-23T15:42:57;2.70;;;1.20;;
2624;SDS011;1322;53.256;10.386;2022-07-23T15:45:22;2.23;;;1.00;;
2624;SDS011;1322;53.256;10.386;2022-07-23T15:47:48;1.20;;;1.00;;
2624;SDS011;1322;53.256;10.386;2022-07-23T15:50:15;1.20;;;0.90;;
2624;SDS011;1322;53.256;10.386;2022-07-23T15:52:41;2.63;;;1.10;;
2624;SDS011;1322;53.256;10.386;2022-07-23T15:55:09;1.83;;;1.10;;
2624;SDS011;1322;53.256;10.386;2022-07-23T15:57:35;2.40;;;1.10;;
2624;SDS011;1322;53.256;10.386;2022-07-23T16:00:00;3.20;;;1.23;;
2624;SDS011;1322;53.256;10.386;2022-07-23T16:02:26;1.53;;;1.20;;
2624;SDS011;1322;53.256;10.386;2022-07-23T16:04:52;1.50;;;1.03;;
2624;SDS011;1322;53.256;10.386;2022-07-23T16:07:18;5.50;;;2.80;;
2624;SDS011;1322;53.256;10.386;2022-07-23T16:09:47;1.20;;;0.80;;
2624;SDS011;1322;53.256;10.386;2022-07-23T16:12:13;1.30;;;1.00;;
2624;SDS011;1322;53.256;10.386;2022-07-23T16:14:39;3.17;;;1.20;;
2624;SDS011;1322;53.256;10.386;2022-07-23T16:17:04;1.60;;;0.97;;
2624;SDS011;1322;53.256;10.386;2022-07-23T16:19:30;2.60;;;1.00;;
2624;SDS011;1322;53.256;10.386;2022-07-23T16:21:56;1.90;;;0.90;;
2624;SDS011;1322;53.256;10.386;2022-07-23T16:24:22;1.87;;;1.00;;
2624;SDS011;1322;53.256;10.386;2022-07-23T16:26:47;3.10;;;1.27;;
2624;SDS011;1322;53.256;10.386;2022-07-23T16:29:13;2.80;;;1.07;;
2624;SDS011;1322;53.256;10.386;2022-07-23T16:31:39;2.37;;;1.30;;
2624;SDS011;1322;53.256;10.386;2022-07-23T16:34:05;3.00;;;1.10;;
2624;SDS011;1322;53.256;10.386;2022-07-23T16:36:31;1.93;;;1.27;;
2624;SDS011;1322;53.256;10.386;2022-07-23T16:38:59;1.60;;;1.20;;
2624;SDS011;1322;53.256;10.386;2022-07-23T16:41:24;1.50;;;1.00;;
2624;SDS011;1322;53.256;10.386;2022-07-23T16:43:50;2.10;;;1.00;;
2624;SDS011;1322;53.256;10.386;2022-07-23T16:46:16;1.40;;;0.90;;
2624;SDS011;1322;53.256;10.386;2022-07-23T16:48:42;2.63;;;1.10;;